sensor_id;sensor_type;location;lat;lon;timestamp;pressure;altitude;pressure_sealevel;temperature;humidity
74675;BME280;63200;48.810;12.352;2023-04-09T00:00:40;98129.63;;;3.73;76.87
74675;BME280;63200;48.810;12.352;2023-04-09T00:03:05;98138.19;;;3.63;76.37
74675;BME280;63200;48.810;12.352;2023-04-09T00:05:31;98142.47;;;3.71;76.53
74675;BME280;63200;48.810;12.352;2023-04-09T00:07:56;98143.34;;;3.83;76.77
74675;BME280;63200;48.810;12.352;2023-04-09T00:10:21;98146.94;;;3.77;76.94
74675;BME280;63200;48.810;12.352;2023-04-09T00:12:47;98137.69;;;3.73;77.35
74675;BME280;63200;48.810;12.352;2023-04-09T00:15:12;98116.00;;;3.56;77.20
74675;BME280;63200;48.810;12.352;2023-04-09T00:17:37;98109.78;;;3.56;77.24
74675;BME280;63200;48.810;12.352;2023-04-09T00:20:03;98137.16;;;3.64;77.03
74675;BME280;63200;48.810;12.352;2023-04-09T00:22:29;98128.16;;;3.77;76.72
74675;BME280;63200;48.810;12.352;2023-04-09T00:24:54;98125.69;;;3.57;77.66
74675;BME280;63200;48.810;12.352;2023-04-09T00:27:21;98125.88;;;3.56;78.05
74675;BME280;63200;48.810;12.352;2023-04-09T00:29:46;98130.38;;;3.62;77.71
74675;BME280;63200;48.810;12.352;2023-04-09T00:32:12;98132.75;;;3.70;76.87
74675;BME280;63200;48.810;12.352;2023-04-09T00:34:37;98128.50;;;3.62;76.25
74675;BME280;63200;48.810;12.352;2023-04-09T00:37:03;98125.53;;;3.52;77.21
74675;BME280;63200;48.810;12.352;2023-04-09T00:39:29;98122.75;;;3.40;77.14
74675;BME280;63200;48.810;12.352;2023-04-09T00:41:58;98149.47;;;3.54;76.07
74675;BME280;63200;48.810;12.352;2023-04-09T00:44:26;98109.22;;;3.10;75.78
74675;BME280;63200;48.810;12.352;2023-04-09T00:46:53;98147.75;;;3.15;76.65
74675;BME280;63200;48.810;12.352;2023-04-09T00:49:18;98151.31;;;3.09;77.31
74675;BME280;63200;48.810;12.352;2023-04-09T00:51:45;98153.25;;;3.02;77.28
74675;BME280;63200;48.810;12.352;2023-04-09T00:54:11;98130.75;;;2.71;77.07
74675;BME280;63200;48.810;12.352;2023-04-09T00:56:37;98150.53;;;2.77;77.12
74675;BME280;63200;48.810;12.352;2023-04-09T00:59:03;98125.50;;;2.58;77.67
74675;BME280;63200;48.810;12.352;2023-04-09T01:01:28;98134.22;;;2.53;77.90
74675;BME280;63200;48.810;12.352;2023-04-09T01:03:53;98152.31;;;2.58;77.80
74675;BME280;63200;48.810;12.352;2023-04-09T01:06:37;98152.97;;;2.53;77.65
74675;BME280;63200;48.810;12.352;2023-04-09T01:14:30;98143.09;;;2.08;77.85
74675;BME280;63200;48.810;12.352;2023-04-09T01:17:13;98135.53;;;1.92;78.27
74675;BME280;63200;48.810;12.352;2023-04-09T01:19:52;98151.41;;;1.93;78.15
74675;BME280;63200;48.810;12.352;2023-04-09T01:22:44;98155.75;;;1.81;77.83
74675;BME280;63200;48.810;12.352;2023-04-09T01:28:16;98147.44;;;1.30;77.40
74675;BME280;63200;48.810;12.352;2023-04-09T01:30:44;98070.38;;;0.74;77.41
74675;BME280;63200;48.810;12.352;2023-04-09T01:33:13;98139.66;;;1.15;77.82
74675;BME280;63200;48.810;12.352;2023-04-09T01:35:42;98135.97;;;1.16;77.63
74675;BME280;63200;48.810;12.352;2023-04-09T01:38:08;98127.94;;;1.03;78.28
74675;BME280;63200;48.810;12.352;2023-04-09T01:40:34;98131.84;;;0.94;78.68
74675;BME280;63200;48.810;12.352;2023-04-09T01:43:01;98131.44;;;0.97;78.62
74675;BME280;63200;48.810;12.352;2023-04-09T01:45:26;98108.41;;;0.62;78.59
74675;BME280;63200;48.810;12.352;2023-04-09T01:47:52;98120.13;;;0.61;78.97
74675;BME280;63200;48.810;12.352;2023-04-09T01:50:18;98145.84;;;0.76;78.76
74675;BME280;63200;48.810;12.352;2023-04-09T01:52:43;98125.63;;;0.33;78.14
74675;BME280;63200;48.810;12.352;2023-04-09T01:55:09;98146.97;;;0.33;77.93
74675;BME280;63200;48.810;12.352;2023-04-09T01:57:34;98132.78;;;0.19;78.22
74675;BME280;63200;48.810;12.352;2023-04-09T01:59:59;98136.47;;;0.18;76.76
74675;BME280;63200;48.810;12.352;2023-04-09T02:02:36;98130.88;;;-0.01;76.73
74675;BME280;63200;48.810;12.352;2023-04-09T02:05:08;98153.53;;;0.24;77.40
74675;BME280;63200;48.810;12.352;2023-04-09T02:07:39;98154.19;;;0.32;77.48
74675;BME280;63200;48.810;12.352;2023-04-09T02:10:07;98161.41;;;0.39;77.44
74675;BME280;63200;48.810;12.352;2023-04-09T02:12:36;98136.47;;;0.18;77.11
74675;BME280;63200;48.810;12.352;2023-04-09T02:15:03;98150.22;;;0.08;77.22
74675;BME280;63200;48.810;12.352;2023-04-09T02:17:29;98144.88;;;0.08;77.36
74675;BME280;63200;48.810;12.352;2023-04-09T02:19:55;98141.56;;;-0.01;77.47
74675;BME280;63200;48.810;12.352;2023-04-09T02:22:20;98158.19;;;0.02;77.36
74675;BME280;63200;48.810;12.352;2023-04-09T02:24:45;98162.31;;;-0.03;77.50
74675;BME280;63200;48.810;12.352;2023-04-09T02:27:11;98148.69;;;-0.14;77.34
74675;BME280;63200;48.810;12.352;2023-04-09T02:29:38;98141.91;;;-0.17;77.54
74675;BME280;63200;48.810;12.352;2023-04-09T02:32:03;98172.38;;;0.09;77.57
74675;BME280;63200;48.810;12.352;2023-04-09T02:34:29;98121.34;;;-0.23;77.25
74675;BME280;63200;48.810;12.352;2023-04-09T02:36:54;98140.69;;;-0.14;77.42
74675;BME280;63200;48.810;12.352;2023-04-09T02:39:19;98177.47;;;-0.03;76.52
74675;BME280;63200;48.810;12.352;2023-04-09T02:41:45;98170.84;;;-0.21;76.75
74675;BME280;63200;48.810;12.352;2023-04-09T02:44:10;98140.00;;;-0.30;76.94
74675;BME280;63200;48.810;12.352;2023-04-09T02:46:37;98140.22;;;-0.25;77.21
74675;BME280;63200;48.810;12.352;2023-04-09T02:49:02;98157.72;;;-0.15;77.25
74675;BME280;63200;48.810;12.352;2023-04-09T02:51:28;98140.41;;;-0.33;78.02
74675;BME280;63200;48.810;12.352;2023-04-09T02:53:53;98158.09;;;-0.19;78.23
74675;BME280;63200;48.810;12.352;2023-04-09T02:56:18;98143.50;;;-0.23;78.35
74675;BME280;63200;48.810;12.352;2023-04-09T02:58:44;98134.22;;;-0.34;78.34
74675;BME280;63200;48.810;12.352;2023-04-09T03:01:09;98165.63;;;-0.36;78.60
74675;BME280;63200;48.810;12.352;2023-04-09T03:03:35;98122.50;;;-0.39;78.81
74675;BME280;63200;48.810;12.352;2023-04-09T03:06:01;98153.88;;;0.01;78.91
74675;BME280;63200;48.810;12.352;2023-04-09T03:08:27;98156.78;;;0.06;79.04
74675;BME280;63200;48.810;12.352;2023-04-09T03:10:52;98138.66;;;-0.06;79.42
74675;BME280;63200;48.810;12.352;2023-04-09T03:13:17;98147.31;;;-0.04;79.52
74675;BME280;63200;48.810;12.352;2023-04-09T03:15:42;98125.28;;;-0.12;79.39
74675;BME280;63200;48.810;12.352;2023-04-09T03:18:08;98134.16;;;-0.05;78.93
74675;BME280;63200;48.810;12.352;2023-04-09T03:20:36;98134.34;;;-0.07;78.70
74675;BME280;63200;48.810;12.352;2023-04-09T03:23:02;98160.81;;;-0.12;78.78
74675;BME280;63200;48.810;12.352;2023-04-09T03:25:27;98162.44;;;-0.11;79.11
74675;BME280;63200;48.810;12.352;2023-04-09T03:27:53;98145.63;;;-0.11;79.01
74675;BME280;63200;48.810;12.352;2023-04-09T03:30:18;98155.91;;;-0.02;78.94
74675;BME280;63200;48.810;12.352;2023-04-09T03:32:44;98127.72;;;-0.18;78.67
74675;BME280;63200;48.810;12.352;2023-04-09T03:35:09;98154.88;;;-0.07;78.67
74675;BME280;63200;48.810;12.352;2023-04-09T03:37:34;98064.75;;;-0.60;78.54
74675;BME280;63200;48.810;12.352;2023-04-09T03:40:00;98144.19;;;-0.07;78.76
74675;BME280;63200;48.810;12.352;2023-04-09T03:42:25;98117.06;;;-0.18;78.66
74675;BME280;63200;48.810;12.352;2023-04-09T03:44:52;98148.34;;;0.09;78.78
74675;BME280;63200;48.810;12.352;2023-04-09T03:47:18;98105.75;;;-0.26;78.37
74675;BME280;63200;48.810;12.352;2023-04-09T03:49:43;98105.28;;;-0.37;79.00
74675;BME280;63200;48.810;12.352;2023-04-09T03:52:09;98140.25;;;-0.18;79.63
74675;BME280;63200;48.810;12.352;2023-04-09T03:54:34;98113.91;;;-0.28;79.61
74675;BME280;63200;48.810;12.352;2023-04-09T03:56:59;98144.88;;;0.08;79.58
74675;BME280;63200;48.810;12.352;2023-04-09T03:59:25;98144.25;;;0.13;79.61
74675;BME280;63200;48.810;12.352;2023-04-09T04:01:50;98156.03;;;0.32;79.46
74675;BME280;63200;48.810;12.352;2023-04-09T04:04:16;98154.41;;;0.38;79.33
74675;BME280;63200;48.810;12.352;2023-04-09T04:06:41;98136.91;;;0.28;79.38
74675;BME280;63200;48.810;12.352;2023-04-09T04:09:06;98156.47;;;0.42;78.82
74675;BME280;63200;48.810;12.352;2023-04-09T04:11:32;98144.94;;;0.28;78.59
74675;BME280;63200;48.810;12.352;2023-04-09T04:13:58;98129.69;;;0.22;78.28
74675;BME280;63200;48.810;12.352;2023-04-09T04:16:24;98160.56;;;0.45;78.82
74675;BME280;63200;48.810;12.352;2023-04-09T04:18:49;98157.72;;;0.46;79.05
74675;BME280;63200;48.810;12.352;2023-04-09T04:21:16;98167.19;;;0.62;79.03
74675;BME280;63200;48.810;12.352;2023-04-09T04:23:41;98174.59;;;0.67;78.94
74675;BME280;63200;48.810;12.352;2023-04-09T04:26:10;98164.94;;;0.73;78.67
74675;BME280;63200;48.810;12.352;2023-04-09T04:28:36;98161.03;;;0.75;78.93
74675;BME280;63200;48.810;12.352;2023-04-09T04:31:06;98177.69;;;0.77;78.57
74675;BME280;63200;48.810;12.352;2023-04-09T04:33:32;98169.03;;;0.62;78.89
74675;BME280;63200;48.810;12.352;2023-04-09T04:36:08;98170.88;;;0.48;79.40
74675;BME280;63200;48.810;12.352;2023-04-09T04:38:33;98165.88;;;0.31;79.74
74675;BME280;63200;48.810;12.352;2023-04-09T04:40:59;98160.53;;;0.31;79.93
74675;BME280;63200;48.810;12.352;2023-04-09T04:43:24;98170.00;;;0.34;79.78
74675;BME280;63200;48.810;12.352;2023-04-09T04:45:50;98140.19;;;0.30;79.79
74675;BME280;63200;48.810;12.352;2023-04-09T04:48:15;98173.78;;;0.60;79.48
74675;BME280;63200;48.810;12.352;2023-04-09T04:50:40;98180.13;;;0.59;79.28
74675;BME280;63200;48.810;12.352;2023-04-09T04:53:05;98178.25;;;0.46;79.53
74675;BME280;63200;48.810;12.352;2023-04-09T04:55:34;98168.41;;;0.46;79.94
74675;BME280;63200;48.810;12.352;2023-04-09T04:58:00;98178.28;;;0.66;79.98
74675;BME280;63200;48.810;12.352;2023-04-09T05:00:25;98159.78;;;0.64;79.46
74675;BME280;63200;48.810;12.352;2023-04-09T05:02:50;98176.69;;;0.92;79.24
74675;BME280;63200;48.810;12.352;2023-04-09T05:05:16;98178.72;;;1.03;78.95
74675;BME280;63200;48.810;12.352;2023-04-09T05:07:41;98185.13;;;1.09;78.85
74675;BME280;63200;48.810;12.352;2023-04-09T05:10:07;98143.59;;;0.79;78.20
74675;BME280;63200;48.810;12.352;2023-04-09T05:12:32;98182.44;;;0.89;78.64
74675;BME280;63200;48.810;12.352;2023-04-09T05:14:58;98169.47;;;0.72;79.27
74675;BME280;63200;48.810;12.352;2023-04-09T05:17:23;98165.19;;;0.98;79.20
74675;BME280;63200;48.810;12.352;2023-04-09T05:19:52;98151.59;;;0.79;79.18
74675;BME280;63200;48.810;12.352;2023-04-09T05:22:18;98160.22;;;0.95;79.47
74675;BME280;63200;48.810;12.352;2023-04-09T05:24:44;98144.41;;;0.93;79.06
74675;BME280;63200;48.810;12.352;2023-04-09T05:27:09;98165.97;;;1.32;79.27
74675;BME280;63200;48.810;12.352;2023-04-09T05:29:34;98170.91;;;1.48;78.63
74675;BME280;63200;48.810;12.352;2023-04-09T05:32:00;98170.44;;;1.58;78.98
74675;BME280;63200;48.810;12.352;2023-04-09T05:34:25;98110.41;;;1.34;77.90
74675;BME280;63200;48.810;12.352;2023-04-09T05:36:51;98158.09;;;1.57;78.54
74675;BME280;63200;48.810;12.352;2023-04-09T05:39:17;98108.31;;;1.43;78.36
74675;BME280;63200;48.810;12.352;2023-04-09T05:41:42;98174.88;;;1.98;77.77
74675;BME280;63200;48.810;12.352;2023-04-09T05:44:09;98149.38;;;1.82;77.71
74675;BME280;63200;48.810;12.352;2023-04-09T05:46:34;98185.19;;;1.88;77.87
74675;BME280;63200;48.810;12.352;2023-04-09T05:49:00;98152.31;;;1.67;78.39
74675;BME280;63200;48.810;12.352;2023-04-09T05:51:25;98199.75;;;2.12;78.02
74675;BME280;63200;48.810;12.352;2023-04-09T05:53:50;98192.06;;;2.22;78.11
74675;BME280;63200;48.810;12.352;2023-04-09T05:56:16;98193.88;;;2.35;77.64
74675;BME280;63200;48.810;12.352;2023-04-09T05:58:41;98199.81;;;2.44;77.70
74675;BME280;63200;48.810;12.352;2023-04-09T06:01:07;98166.06;;;2.36;77.26
74675;BME280;63200;48.810;12.352;2023-04-09T06:03:32;98180.81;;;2.52;77.16
74675;BME280;63200;48.810;12.352;2023-04-09T06:05:58;98195.28;;;2.76;77.15
74675;BME280;63200;48.810;12.352;2023-04-09T06:08:23;98200.31;;;2.98;77.42
74675;BME280;63200;48.810;12.352;2023-04-09T06:10:48;98200.81;;;3.13;76.45
74675;BME280;63200;48.810;12.352;2023-04-09T06:13:14;98182.56;;;3.22;75.79
74675;BME280;63200;48.810;12.352;2023-04-09T06:15:40;98190.69;;;3.41;75.74
74675;BME280;63200;48.810;12.352;2023-04-09T06:18:05;98178.78;;;3.55;75.76
74675;BME280;63200;48.810;12.352;2023-04-09T06:20:31;98199.81;;;3.77;75.16
74675;BME280;63200;48.810;12.352;2023-04-09T06:22:56;98198.63;;;3.73;74.86
74675;BME280;63200;48.810;12.352;2023-04-09T06:25:21;98199.56;;;3.85;74.56
74675;BME280;63200;48.810;12.352;2023-04-09T06:27:46;98195.16;;;3.91;74.74
74675;BME280;63200;48.810;12.352;2023-04-09T06:30:12;98175.88;;;3.75;74.62
74675;BME280;63200;48.810;12.352;2023-04-09T06:32:37;98198.56;;;3.98;74.56
74675;BME280;63200;48.810;12.352;2023-04-09T06:35:03;98204.84;;;4.10;74.35
74675;BME280;63200;48.810;12.352;2023-04-09T06:37:28;98177.22;;;4.03;74.30
74675;BME280;63200;48.810;12.352;2023-04-09T06:39:54;98194.03;;;4.17;73.57
74675;BME280;63200;48.810;12.352;2023-04-09T06:42:19;98198.53;;;4.35;74.32
74675;BME280;63200;48.810;12.352;2023-04-09T06:44:45;98194.81;;;4.36;74.23
74675;BME280;63200;48.810;12.352;2023-04-09T06:47:10;98204.28;;;4.39;73.84
74675;BME280;63200;48.810;12.352;2023-04-09T06:49:36;98211.38;;;4.52;74.01
74675;BME280;63200;48.810;12.352;2023-04-09T06:52:02;98215.97;;;4.63;73.77
74675;BME280;63200;48.810;12.352;2023-04-09T06:54:27;98219.41;;;4.70;72.96
74675;BME280;63200;48.810;12.352;2023-04-09T06:56:53;98213.97;;;4.58;73.18
74675;BME280;63200;48.810;12.352;2023-04-09T06:59:18;98216.72;;;4.70;72.66
74675;BME280;63200;48.810;12.352;2023-04-09T07:01:43;98224.00;;;4.81;72.67
74675;BME280;63200;48.810;12.352;2023-04-09T07:04:09;98221.25;;;4.70;72.64
74675;BME280;63200;48.810;12.352;2023-04-09T07:06:34;98226.28;;;4.66;72.37
74675;BME280;63200;48.810;12.352;2023-04-09T07:09:00;98206.03;;;4.63;72.35
74675;BME280;63200;48.810;12.352;2023-04-09T07:11:25;98220.66;;;4.98;72.24
74675;BME280;63200;48.810;12.352;2023-04-09T07:13:51;98201.34;;;5.01;72.16
74675;BME280;63200;48.810;12.352;2023-04-09T07:16:16;98230.75;;;5.14;71.27
74675;BME280;63200;48.810;12.352;2023-04-09T07:18:41;98174.03;;;4.74;71.54
74675;BME280;63200;48.810;12.352;2023-04-09T07:21:07;98231.44;;;4.98;71.86
74675;BME280;63200;48.810;12.352;2023-04-09T07:23:33;98231.72;;;5.20;71.53
74675;BME280;63200;48.810;12.352;2023-04-09T07:26:03;98239.09;;;5.25;71.36
74675;BME280;63200;48.810;12.352;2023-04-09T07:28:29;98240.03;;;5.30;71.41
74675;BME280;63200;48.810;12.352;2023-04-09T07:30:54;98196.72;;;5.08;71.20
74675;BME280;63200;48.810;12.352;2023-04-09T07:33:20;98239.72;;;5.50;70.98
74675;BME280;63200;48.810;12.352;2023-04-09T07:35:45;98202.94;;;5.44;71.46
74675;BME280;63200;48.810;12.352;2023-04-09T07:38:11;98238.91;;;5.86;70.50
74675;BME280;63200;48.810;12.352;2023-04-09T07:40:36;98235.97;;;5.87;69.79
74675;BME280;63200;48.810;12.352;2023-04-09T07:43:02;98196.97;;;5.66;69.48
74675;BME280;63200;48.810;12.352;2023-04-09T07:45:28;98231.75;;;6.15;69.11
74675;BME280;63200;48.810;12.352;2023-04-09T07:47:53;98230.00;;;6.21;68.82
74675;BME280;63200;48.810;12.352;2023-04-09T07:50:18;98228.16;;;6.50;68.59
74675;BME280;63200;48.810;12.352;2023-04-09T07:52:43;98232.94;;;6.60;67.82
74675;BME280;63200;48.810;12.352;2023-04-09T07:55:09;98223.66;;;6.27;67.39
74675;BME280;63200;48.810;12.352;2023-04-09T07:57:34;98216.16;;;6.29;66.87
74675;BME280;63200;48.810;12.352;2023-04-09T08:00:00;98237.56;;;6.47;67.12
74675;BME280;63200;48.810;12.352;2023-04-09T08:02:26;98244.00;;;6.46;67.73
74675;BME280;63200;48.810;12.352;2023-04-09T08:04:51;98241.44;;;6.40;67.99
74675;BME280;63200;48.810;12.352;2023-04-09T08:07:17;98245.34;;;6.20;67.73
74675;BME280;63200;48.810;12.352;2023-04-09T08:09:42;98240.44;;;6.17;67.60
74675;BME280;63200;48.810;12.352;2023-04-09T08:12:07;98204.47;;;6.11;68.01
74675;BME280;63200;48.810;12.352;2023-04-09T08:14:33;98243.53;;;6.49;67.45
74675;BME280;63200;48.810;12.352;2023-04-09T08:16:58;98252.44;;;6.50;66.10
74675;BME280;63200;48.810;12.352;2023-04-09T08:19:23;98254.66;;;6.53;65.43
74675;BME280;63200;48.810;12.352;2023-04-09T08:21:49;98243.66;;;6.43;67.20
74675;BME280;63200;48.810;12.352;2023-04-09T08:24:14;98248.25;;;6.42;66.55
74675;BME280;63200;48.810;12.352;2023-04-09T08:26:41;98237.28;;;6.08;66.79
74675;BME280;63200;48.810;12.352;2023-04-09T08:29:07;98257.16;;;6.31;67.13
74675;BME280;63200;48.810;12.352;2023-04-09T08:31:33;98251.31;;;6.34;66.26
74675;BME280;63200;48.810;12.352;2023-04-09T08:33:59;98216.56;;;6.09;65.59
74675;BME280;63200;48.810;12.352;2023-04-09T08:36:24;98247.06;;;6.50;64.77
74675;BME280;63200;48.810;12.352;2023-04-09T08:38:50;98249.47;;;6.63;65.09
74675;BME280;63200;48.810;12.352;2023-04-09T08:41:21;98255.22;;;6.96;65.03
74675;BME280;63200;48.810;12.352;2023-04-09T08:43:49;98252.59;;;7.01;64.53
74675;BME280;63200;48.810;12.352;2023-04-09T08:46:16;98243.69;;;7.00;64.18
74675;BME280;63200;48.810;12.352;2023-04-09T08:48:43;98244.63;;;7.23;63.54
74675;BME280;63200;48.810;12.352;2023-04-09T08:51:12;98264.50;;;7.34;62.07
74675;BME280;63200;48.810;12.352;2023-04-09T08:53:37;98249.94;;;7.18;61.73
74675;BME280;63200;48.810;12.352;2023-04-09T08:56:04;98263.34;;;7.13;61.76
74675;BME280;63200;48.810;12.352;2023-04-09T08:58:29;98264.94;;;6.97;61.36
74675;BME280;63200;48.810;12.352;2023-04-09T09:00:55;98273.69;;;7.16;61.02
74675;BME280;63200;48.810;12.352;2023-04-09T09:03:21;98274.84;;;7.37;62.43
74675;BME280;63200;48.810;12.352;2023-04-09T09:05:46;98255.78;;;7.44;62.78
74675;BME280;63200;48.810;12.352;2023-04-09T09:08:21;98269.22;;;7.10;63.77
74675;BME280;63200;48.810;12.352;2023-04-09T09:10:47;98270.38;;;7.14;64.79
74675;BME280;63200;48.810;12.352;2023-04-09T09:15:41;98276.63;;;6.86;65.61
74675;BME280;63200;48.810;12.352;2023-04-09T09:18:06;98262.78;;;6.82;66.04
74675;BME280;63200;48.810;12.352;2023-04-09T09:20:31;98270.53;;;7.07;65.74
74675;BME280;63200;48.810;12.352;2023-04-09T09:22:57;98273.09;;;7.14;65.28
74675;BME280;63200;48.810;12.352;2023-04-09T09:25:23;98243.50;;;6.90;64.89
74675;BME280;63200;48.810;12.352;2023-04-09T09:27:50;98273.63;;;6.99;65.03
74675;BME280;63200;48.810;12.352;2023-04-09T09:30:23;98251.06;;;6.76;65.68
74675;BME280;63200;48.810;12.352;2023-04-09T09:32:53;98241.19;;;6.82;66.19
74675;BME280;63200;48.810;12.352;2023-04-09T09:35:19;98259.22;;;6.93;66.14
74675;BME280;63200;48.810;12.352;2023-04-09T09:37:44;98250.44;;;7.15;64.91
74675;BME280;63200;48.810;12.352;2023-04-09T09:40:10;98221.03;;;7.02;64.58
74675;BME280;63200;48.810;12.352;2023-04-09T09:42:54;98263.47;;;7.52;64.24
74675;BME280;63200;48.810;12.352;2023-04-09T09:45:21;98261.66;;;7.75;63.94
74675;BME280;63200;48.810;12.352;2023-04-09T09:47:47;98259.22;;;7.90;62.69
74675;BME280;63200;48.810;12.352;2023-04-09T09:50:13;98239.16;;;8.08;62.61
74675;BME280;63200;48.810;12.352;2023-04-09T09:52:40;98260.13;;;8.57;61.66
74675;BME280;63200;48.810;12.352;2023-04-09T09:55:12;98252.97;;;8.95;61.11
74675;BME280;63200;48.810;12.352;2023-04-09T09:57:41;98251.69;;;9.30;59.27
74675;BME280;63200;48.810;12.352;2023-04-09T10:00:10;98260.56;;;9.86;57.63
74675;BME280;63200;48.810;12.352;2023-04-09T10:02:47;98258.97;;;9.90;55.93
74675;BME280;63200;48.810;12.352;2023-04-09T10:05:18;98255.50;;;9.62;56.99
74675;BME280;63200;48.810;12.352;2023-04-09T10:07:49;98257.13;;;8.76;58.26
74675;BME280;63200;48.810;12.352;2023-04-09T10:10:15;98252.69;;;8.92;59.87
74675;BME280;63200;48.810;12.352;2023-04-09T10:12:41;98256.50;;;8.96;58.33
74675;BME280;63200;48.810;12.352;2023-04-09T10:15:08;98238.50;;;8.84;57.77
74675;BME280;63200;48.810;12.352;2023-04-09T10:17:33;98252.56;;;8.81;58.91
74675;BME280;63200;48.810;12.352;2023-04-09T10:20:15;98247.09;;;8.76;57.59
74675;BME280;63200;48.810;12.352;2023-04-09T10:22:46;98251.97;;;8.79;58.59
74675;BME280;63200;48.810;12.352;2023-04-09T10:25:13;98249.38;;;9.12;58.39
74675;BME280;63200;48.810;12.352;2023-04-09T10:27:38;98240.03;;;9.62;57.76
74675;BME280;63200;48.810;12.352;2023-04-09T10:30:04;98244.78;;;10.89;55.19
74675;BME280;63200;48.810;12.352;2023-04-09T10:32:34;98206.88;;;12.47;53.42
74675;BME280;63200;48.810;12.352;2023-04-09T10:35:02;98232.19;;;13.53;49.01
74675;BME280;63200;48.810;12.352;2023-04-09T10:37:27;98210.41;;;14.30;47.18
74675;BME280;63200;48.810;12.352;2023-04-09T10:39:54;98230.63;;;14.29;47.23
74675;BME280;63200;48.810;12.352;2023-04-09T10:42:31;98225.25;;;13.26;46.41
74675;BME280;63200;48.810;12.352;2023-04-09T10:45:13;98226.56;;;12.23;46.22
74675;BME280;63200;48.810;12.352;2023-04-09T10:47:42;98210.31;;;11.56;46.59
74675;BME280;63200;48.810;12.352;2023-04-09T10:50:27;98234.00;;;11.25;47.94
74675;BME280;63200;48.810;12.352;2023-04-09T10:52:57;98228.25;;;10.95;48.81
74675;BME280;63200;48.810;12.352;2023-04-09T10:55:38;98192.28;;;10.52;51.97
74675;BME280;63200;48.810;12.352;2023-04-09T10:58:05;98192.50;;;10.40;49.54
74675;BME280;63200;48.810;12.352;2023-04-09T11:00:31;98230.19;;;10.37;51.61
74675;BME280;63200;48.810;12.352;2023-04-09T11:05:38;98225.97;;;10.61;51.07
74675;BME280;63200;48.810;12.352;2023-04-09T11:08:12;98230.06;;;10.79;51.33
74675;BME280;63200;48.810;12.352;2023-04-09T11:10:42;98190.59;;;10.41;50.45
74675;BME280;63200;48.810;12.352;2023-04-09T11:13:16;98224.94;;;10.83;49.05
74675;BME280;63200;48.810;12.352;2023-04-09T11:15:43;98223.31;;;10.87;49.95
74675;BME280;63200;48.810;12.352;2023-04-09T11:18:13;98199.13;;;10.86;50.31
74675;BME280;63200;48.810;12.352;2023-04-09T11:20:39;98205.13;;;10.98;50.11
74675;BME280;63200;48.810;12.352;2023-04-09T11:23:04;98212.50;;;11.08;49.89
74675;BME280;63200;48.810;12.352;2023-04-09T11:25:31;98224.22;;;11.34;48.18
74675;BME280;63200;48.810;12.352;2023-04-09T11:27:57;98218.78;;;11.39;47.34
74675;BME280;63200;48.810;12.352;2023-04-09T11:30:23;98216.28;;;10.96;47.63
74675;BME280;63200;48.810;12.352;2023-04-09T11:32:49;98217.88;;;10.72;49.25
74675;BME280;63200;48.810;12.352;2023-04-09T11:35:16;98212.78;;;11.11;47.74
74675;BME280;63200;48.810;12.352;2023-04-09T11:37:43;98216.59;;;11.10;48.43
74675;BME280;63200;48.810;12.352;2023-04-09T11:40:20;98214.34;;;10.81;48.32
74675;BME280;63200;48.810;12.352;2023-04-09T11:42:48;98215.44;;;10.86;49.48
74675;BME280;63200;48.810;12.352;2023-04-09T11:45:15;98213.75;;;10.59;50.16
74675;BME280;63200;48.810;12.352;2023-04-09T11:47:43;98220.41;;;11.25;50.13
74675;BME280;63200;48.810;12.352;2023-04-09T11:50:09;98214.97;;;11.50;47.40
74675;BME280;63200;48.810;12.352;2023-04-09T11:52:36;98188.88;;;11.39;47.94
74675;BME280;63200;48.810;12.352;2023-04-09T11:55:02;98224.19;;;11.91;48.32
74675;BME280;63200;48.810;12.352;2023-04-09T11:57:58;98214.88;;;12.23;47.23
74675;BME280;63200;48.810;12.352;2023-04-09T12:00:25;98221.44;;;12.06;48.54
74675;BME280;63200;48.810;12.352;2023-04-09T12:03:02;98209.88;;;12.50;45.10
74675;BME280;63200;48.810;12.352;2023-04-09T12:05:32;98211.09;;;13.24;43.32
74675;BME280;63200;48.810;12.352;2023-04-09T12:08:00;98216.06;;;14.10;41.25
74675;BME280;63200;48.810;12.352;2023-04-09T12:10:27;98208.81;;;14.73;41.38
74675;BME280;63200;48.810;12.352;2023-04-09T12:12:53;98209.22;;;14.12;41.60
74675;BME280;63200;48.810;12.352;2023-04-09T12:15:21;98207.25;;;14.18;41.57
74675;BME280;63200;48.810;12.352;2023-04-09T12:17:54;98206.59;;;14.02;41.49
74675;BME280;63200;48.810;12.352;2023-04-09T12:22:55;98183.28;;;14.58;40.75
74675;BME280;63200;48.810;12.352;2023-04-09T12:25:20;98200.28;;;15.51;41.35
74675;BME280;63200;48.810;12.352;2023-04-09T12:27:45;98202.03;;;15.60;39.67
74675;BME280;63200;48.810;12.352;2023-04-09T12:30:11;98178.16;;;15.14;37.01
74675;BME280;63200;48.810;12.352;2023-04-09T12:32:36;98181.31;;;14.64;38.23
74675;BME280;63200;48.810;12.352;2023-04-09T12:35:03;98176.00;;;15.30;37.21
74675;BME280;63200;48.810;12.352;2023-04-09T12:37:28;98201.03;;;15.37;37.95
74675;BME280;63200;48.810;12.352;2023-04-09T12:39:54;98198.91;;;15.67;37.94
74675;BME280;63200;48.810;12.352;2023-04-09T12:42:19;98201.88;;;14.99;38.85
74675;BME280;63200;48.810;12.352;2023-04-09T12:44:44;98164.31;;;15.05;37.90
74675;BME280;63200;48.810;12.352;2023-04-09T12:47:10;98190.03;;;15.04;37.47
74675;BME280;63200;48.810;12.352;2023-04-09T12:49:35;98193.09;;;15.55;37.97
74675;BME280;63200;48.810;12.352;2023-04-09T12:52:00;98173.75;;;16.12;38.19
74675;BME280;63200;48.810;12.352;2023-04-09T12:54:26;98187.94;;;15.67;36.57
74675;BME280;63200;48.810;12.352;2023-04-09T12:56:51;98173.22;;;14.54;38.38
74675;BME280;63200;48.810;12.352;2023-04-09T12:59:16;98170.31;;;15.07;38.98
74675;BME280;63200;48.810;12.352;2023-04-09T13:01:42;98182.16;;;15.55;39.77
74675;BME280;63200;48.810;12.352;2023-04-09T13:04:07;98176.78;;;15.30;39.94
74675;BME280;63200;48.810;12.352;2023-04-09T13:06:32;98186.34;;;14.76;38.49
74675;BME280;63200;48.810;12.352;2023-04-09T13:08:57;98176.25;;;13.79;40.32
74675;BME280;63200;48.810;12.352;2023-04-09T13:11:23;98143.97;;;13.28;40.69